Latest Coastal Weather Observations for Moorabbin Airport

IDV60701

Issued at 8:31 pm EST Monday 16 September 2019 (issued every 10 minutes, with the page automatically refreshed every 10 minutes)

About coastal observations | Map of coastal stations | Coastal observations for VIC | Marine services | Other Formats
Station Details ID: 086077 Name: MOORABBIN AIRPORT Lat: -37.98 Lon: 145.10 Height: 12.1 m
Data from the previous 72 hours. | See also: Recent months at Moorabbin Airport
Date/Time
EST
Wind Sea
Height
m
Swell Vis
km
Cloud Weather Temp
°C
Press
hPa
Rain since
9am
mm
Dir  Spd
kts
Gust
kts
Height
m
Period
s
Dir
16/08:30pm S 9 12 - - - - 10 Clear - 8.4 1025.7 0.0
16/08:00pm S 10 14 - - - - 10 - - 8.6 1025.7 0.0
16/07:30pm S 11 15 - - - - 10 Partly cloudy - 8.5 1025.4 0.0
16/07:00pm S 10 13 - - - - 10 Partly cloudy - 8.3 1025.1 0.0
16/06:30pm S 12 16 - - - - 10 - - 8.6 1024.7 0.0
16/06:00pm S 14 21 - - - - 10 Mostly cloudy - 9.7 1024.2 0.0
16/05:30pm SSW 13 18 - - - - 10 Partly cloudy - 10.4 1023.6 0.0
16/05:00pm SSW 14 21 - - - - 10 - - 10.8 1023.2 0.0
16/04:30pm SSW 16 21 - - - - 10 - - 11.1 1023.0 0.0
16/04:00pm SSW 15 20 - - - - 10 - - 11.6 1022.7 0.0
16/03:30pm SSW 15 22 - - - - 10 - - 11.3 1022.5 0.0
16/03:00pm SSW 14 19 - - - - 10 - - 11.2 1022.4 0.0
16/02:30pm SSW 17 24 - - - - 10 - - 11.6 1022.0 0.0
16/02:00pm SSW 15 22 - - - - 10 - - 12.1 1021.7 0.0
16/01:30pm SSW 14 20 - - - - 10 Partly cloudy - 12.0 1021.8 0.0
16/01:00pm SSW 14 19 - - - - 10 - - 11.8 1021.5 0.0
16/12:30pm SSW 16 23 - - - - 10 - - 12.3 1021.3 0.0
16/12:00pm SSW 17 25 - - - - 10 - - 11.9 1021.2 0.0
16/11:30am SSW 15 21 - - - - 10 - - 12.3 1021.2 0.0
16/11:00am SSW 15 21 - - - - 10 Partly cloudy - 12.0 1021.0 0.0
16/10:30am SSW 13 17 - - - - 10 Partly cloudy - 12.0 1020.8 0.0
16/10:00am SSW 12 15 - - - - 10 - - 11.8 1020.6 0.0
16/09:30am S 12 17 - - - - 10 Partly cloudy - 11.5 1020.5 0.0
16/09:00am SSW 12 17 - - - - 10 Partly cloudy Recent precip. 11.7 1020.3 20.8
16/08:30am S 10 15 - - - - 10 Partly cloudy - 10.6 1020.1 20.6
16/08:00am SSW 11 15 - - - - 10 Partly cloudy - 11.2 1019.8 20.6
16/07:30am SW 7 10 - - - - 10 Partly cloudy - 10.2 1019.6 20.6
16/07:00am WSW 7 11 - - - - 10 Partly cloudy - 10.0 1019.2 20.6
16/06:30am WSW 6 10 - - - - 10 Partly cloudy - 9.8 1018.8 20.6
16/06:00am WSW 8 12 - - - - 10 Cloudy - 10.4 1018.5 20.6
16/05:30am W 6 8 - - - - 10 Partly cloudy - 10.1 1018.1 20.6
16/05:00am W 7 13 - - - - 10 Partly cloudy - 10.3 1017.9 20.6
16/04:30am W 7 9 - - - - 10 Partly cloudy - 10.3 1017.5 20.6
16/04:00am WNW 7 10 - - - - 10 Cloudy - 10.6 1017.4 20.6
16/03:30am WNW 6 9 - - - - 10 Partly cloudy - 10.4 1017.4 20.6
16/03:00am WNW 9 12 - - - - 10 Cloudy - 10.4 1016.6 20.4
16/02:30am WNW 10 14 - - - - - Partly cloudy - 10.4 1016.7 20.4
16/02:00am W 10 16 - - - - - Partly cloudy - 10.3 1016.6 20.4
16/01:30am W 13 20 - - - - - Partly cloudy - 10.3 1016.9 19.0
16/01:28am W 13 20 - - - - - Partly cloudy - 10.4 1017.4 18.4
16/01:00am WSW 8 11 - - - - - Partly cloudy - 10.7 1016.6 16.2
16/12:30am SSW 13 17 - - - - - Partly cloudy - 10.8 1015.8 13.8
16/12:00am SW 11 16 - - - - - Cloudy Rain 11.1 1015.6 13.8
 
Date/Time
EST
Wind Sea
Height
m
Swell Vis
km
Cloud Weather Temp
°C
Press
hPa
Rain since
9am
mm
Dir  Spd
kts
Gust
kts
Height
m
Period
s
Dir
15/11:40pm SSW 11 18 - - - - - Partly cloudy - 11.6 1015.0 12.8
15/11:30pm W 9 19 - - - - 5 Partly cloudy - 13.1 1015.4 12.8
15/11:20pm WNW 7 13 - - - - 5 Partly cloudy - 14.2 1015.1 12.0
15/11:00pm NW 5 8 - - - - 10 Partly cloudy - 14.1 1014.4 10.6
15/10:30pm NW 8 10 - - - - 10 Partly cloudy - 14.8 1014.5 10.0
15/10:00pm NW 10 22 - - - - 10 Partly cloudy - 14.6 1015.6 9.8
15/09:30pm NNW 6 9 - - - - 10 Cloudy - 14.2 1014.9 9.4
15/09:00pm N 13 16 - - - - - Cloudy Recent precip. 14.5 1014.8 9.4
15/08:30pm N 12 16 - - - - - Partly cloudy - 14.3 1014.4 9.4
15/08:00pm N 10 15 - - - - - Partly cloudy - 14.4 1015.7 9.0
15/07:30pm N 9 11 - - - - - Partly cloudy - 14.4 1016.7 7.2
15/07:00pm WNW 5 8 - - - - 4 Partly cloudy - 14.6 1017.1 4.6
15/06:49pm WNW 5 9 - - - - 5 Partly cloudy - 14.7 1016.8 3.6
15/06:30pm NW 7 9 - - - - 10 Cloudy - 15.1 1015.9 2.4
15/06:00pm NNW 9 12 - - - - 10 Cloudy Recent precip. 15.7 1015.5 2.2
15/05:30pm N 12 15 - - - - 10 Partly cloudy - 15.0 1014.3 2.0
15/05:00pm NNW 7 10 - - - - 10 Partly cloudy - 16.4 1015.2 1.2
15/04:30pm NNW 8 10 - - - - 10 Cloudy - 16.2 1015.8 1.0
15/04:00pm NW 10 17 - - - - 9 Partly cloudy - 16.4 1015.7 0.6
15/03:30pm N 16 23 - - - - 10 Partly cloudy - 18.2 1014.2 0.0
15/03:00pm NNW 17 23 - - - - 10 Cloudy - 19.1 1014.0 0.0
15/02:30pm N 16 21 - - - - 10 Cloudy - 18.9 1014.1 0.0
15/02:00pm NNW 13 17 - - - - 10 Cloudy - 19.0 1014.9 0.0
15/01:30pm NNW 14 21 - - - - 10 Partly cloudy - 18.5 1015.7 0.0
15/01:00pm NNW 9 12 - - - - 10 Cloudy - 17.3 1015.0 0.0
15/12:30pm WNW 8 13 - - - - 10 Cloudy - 17.2 1016.0 0.0
15/12:00pm N 13 19 - - - - 10 Partly cloudy - 16.8 1015.4 0.0
15/11:30am N 20 29 - - - - 10 Partly cloudy - 17.3 1015.8 0.0
15/11:00am N 20 31 - - - - 10 Partly cloudy - 17.4 1016.1 0.0
15/10:57am N 20 31 - - - - 10 Partly cloudy - 17.5 1015.9 0.0
15/10:30am N 23 31 - - - - 10 Partly cloudy - 17.6 1016.3 0.0
15/10:00am N 19 30 - - - - 10 Partly cloudy - 17.2 1016.7 0.0
15/09:54am N 20 30 - - - - 10 Partly cloudy - 17.0 1017.0 0.0
15/09:30am N 18 25 - - - - 10 Partly cloudy - 16.8 1017.3 0.0
15/09:00am N 17 25 - - - - 10 Mostly cloudy - 15.1 1017.9 1.4
15/08:30am NNW 15 23 - - - - 10 Partly cloudy - 14.4 1018.2 1.4
15/08:08am N 17 28 - - - - 10 Partly cloudy - 13.9 1017.7 1.4
15/08:00am N 14 21 - - - - 10 Cloudy - 13.8 1017.8 1.4
15/07:30am NNW 9 12 - - - - 10 Cloudy - 14.0 1018.7 1.2
15/07:00am N 10 13 - - - - 10 Cloudy - 14.0 1018.1 1.2
15/06:30am N 10 15 - - - - 10 Cloudy - 14.0 1017.7 1.2
15/06:00am N 16 21 - - - - 10 Mostly cloudy - 13.8 1017.4 1.2
15/05:30am N 18 23 - - - - 10 Cloudy - 13.9 1017.6 1.2
15/05:00am N 18 23 - - - - 10 Partly cloudy - 13.2 1017.5 1.2
15/04:30am N 15 19 - - - - 10 Partly cloudy - 14.5 1018.0 0.8
15/04:00am N 13 18 - - - - 10 Partly cloudy - 14.8 1018.3 0.8
15/03:30am N 11 13 - - - - 10 Cloudy - 15.0 1018.2 0.8
15/03:00am N 11 14 - - - - 10 Mostly cloudy - 14.8 1018.3 0.8
15/02:30am N 13 16 - - - - 10 Partly cloudy - 14.7 1018.7 0.8
15/02:00am N 11 15 - - - - 10 Cloudy - 14.6 1019.2 0.8
15/01:30am NNE 9 11 - - - - 10 Cloudy - 14.5 1019.7 0.6
15/01:00am NNE 8 11 - - - - 10 Cloudy - 14.6 1019.9 0.6
15/12:30am NNE 10 12 - - - - 10 Cloudy - 14.0 1020.2 0.6
15/12:00am N 9 11 - - - - 10 Cloudy Rain 13.9 1020.6 0.4
 
Date/Time
EST
Wind Sea
Height
m
Swell Vis
km
Cloud Weather Temp
°C
Press
hPa
Rain since
9am
mm
Dir  Spd
kts
Gust
kts
Height
m
Period
s
Dir
14/11:30pm N 7 8 - - - - 10 Cloudy - 14.0 1021.1 0.2
14/11:00pm N 8 11 - - - - 10 Cloudy - 15.4 1021.3 0.0
14/10:30pm N 11 15 - - - - 10 Partly cloudy - 16.8 1021.0 0.0
14/10:00pm N 11 15 - - - - 10 Partly cloudy - 16.5 1020.8 0.0
14/09:30pm N 13 16 - - - - 10 Partly cloudy - 16.0 1020.8 0.0
14/09:00pm N 9 13 - - - - 10 Cloudy - 16.6 1021.4 0.0
14/08:30pm N 9 12 - - - - 10 Partly cloudy - 16.1 1021.4 0.0
14/08:00pm N 10 13 - - - - 10 - - 16.1 1021.0 0.0
14/07:30pm N 11 13 - - - - 10 Partly cloudy - 16.6 1021.1 0.0
14/07:00pm N 7 9 - - - - 10 Partly cloudy - 16.5 1021.1 0.0
14/06:30pm N 7 8 - - - - 10 - - 16.8 1021.2 0.0
14/06:00pm N 7 9 - - - - 10 - - 16.4 1021.2 0.0
14/05:30pm NNE 1 4 - - - - 10 - - 17.0 1021.7 0.0
14/05:00pm CALM 0 0 - - - - 10 - - 16.9 1021.8 0.0
14/04:30pm SW 3 5 - - - - 10 - - 17.0 1022.0 0.0
14/04:00pm SSW 3 5 - - - - 10 - - 16.3 1022.4 0.0
14/03:30pm SW 6 8 - - - - 10 - - 15.8 1023.0 0.0
14/03:00pm SSW 7 9 - - - - 10 - - 15.1 1023.1 0.0
14/02:30pm SSW 8 11 - - - - 10 - - 14.9 1023.5 0.0
14/02:00pm SW 9 11 - - - - 10 - - 14.7 1023.7 0.0
14/01:30pm SW 9 12 - - - - 10 - - 14.6 1023.9 0.0
14/01:00pm SW 7 10 - - - - 10 - - 14.4 1024.4 0.0
14/12:30pm SSW 8 11 - - - - 10 - - 14.3 1024.9 0.0
14/12:00pm SW 10 13 - - - - 10 - - 13.6 1025.5 0.0
14/11:30am SW 9 11 - - - - 10 - - 13.4 1025.7 0.0
14/11:00am SW 8 11 - - - - 10 Partly cloudy - 13.3 1025.9 0.0
14/10:30am W 4 6 - - - - 10 Partly cloudy - 13.2 1026.3 0.0
14/10:00am WSW 7 9 - - - - 10 Partly cloudy - 12.9 1026.8 0.0
14/09:30am W 8 11 - - - - 10 Cloudy - 12.1 1027.2 0.0
14/09:00am W 9 12 - - - - 10 Cloudy - 11.6 1027.1 0.0
14/08:30am WNW 7 10 - - - - 10 Cloudy - 11.7 1026.7 0.0
14/08:00am WNW 6 9 - - - - 10 Cloudy - 10.8 1026.5 0.0
14/07:30am WNW 3 6 - - - - 10 Cloudy - 10.6 1026.1 0.0
14/07:00am NW 5 6 - - - - 10 Partly cloudy - 9.2 1026.0 0.0
14/06:30am WNW 5 6 - - - - 10 Partly cloudy - 9.1 1026.0 0.0
14/06:00am WNW 6 8 - - - - 10 Mostly cloudy - 9.7 1025.9 0.0
14/05:30am W 6 8 - - - - 10 Partly cloudy - 9.9 1025.6 0.0
14/05:00am WNW 5 7 - - - - 10 - - 9.4 1025.3 0.0
14/04:30am W 6 8 - - - - 10 - - 9.9 1025.2 0.0
14/04:00am W 8 14 - - - - 10 - - 10.2 1025.3 0.0
14/03:30am W 7 10 - - - - 10 Partly cloudy - 10.3 1025.2 0.0
14/03:00am W 8 11 - - - - 10 Partly cloudy - 10.5 1025.2 0.0
14/02:30am W 7 11 - - - - 10 Partly cloudy - 10.8 1025.3 0.0
14/02:00am WNW 8 12 - - - - 10 - - 10.6 1025.2 0.0
14/01:30am W 8 11 - - - - 10 Partly cloudy - 10.9 1025.3 0.0
14/01:00am W 7 11 - - - - 10 Partly cloudy - 11.0 1025.4 0.0
14/12:30am WNW 8 12 - - - - 10 Partly cloudy - 11.2 1025.4 0.0
14/12:00am WNW 8 11 - - - - 10 - - 11.3 1025.5 0.0
 
Date/Time
EST
Wind Sea
Height
m
Swell Vis
km
Cloud Weather Temp
°C
Press
hPa
Rain since
9am
mm
Dir  Spd
kts
Gust
kts
Height
m
Period
s
Dir
13/11:30pm WNW 8 11 - - - - 10 - - 11.7 1025.4 0.0
13/11:00pm W 10 14 - - - - 10 - - 12.0 1025.4 0.0
13/10:30pm W 10 16 - - - - 10 - - 12.5 1025.2 0.0
13/10:00pm W 10 16 - - - - 10 - - 12.7 1024.9 0.0
13/09:30pm W 13 21 - - - - 10 - - 13.4 1024.6 0.0
13/09:00pm W 10 15 - - - - 10 Mostly clear - 13.2 1024.4 0.0

Other formats

Comma delimited format used in spreadsheet applications
http://www.bom.gov.au/fwo/IDV60701/IDV60701.94870.axf

JavaScript Object Notation format (JSON) in row-major order
http://www.bom.gov.au/fwo/IDV60701/IDV60701.94870.json

Data quality

Most of these data are generated automatically and are frequently updated. Quality checks on data are not normally performed. It is possible for incorrect values to appear. Refer to information at About Latest Weather Observations and please check the disclaimer before using these data.